sensor_id;sensor_type;location;lat;lon;timestamp;P1;durP1;ratioP1;P2;durP2;ratioP2
33188;SDS011;52601;53.070;10.600;2023-02-15T00:01:11;38.63;;;9.48;;
33188;SDS011;52601;53.070;10.600;2023-02-15T00:03:57;46.10;;;10.40;;
33188;SDS011;52601;53.070;10.600;2023-02-15T00:06:42;39.88;;;9.63;;
33188;SDS011;52601;53.070;10.600;2023-02-15T00:09:28;46.47;;;10.32;;
33188;SDS011;52601;53.070;10.600;2023-02-15T00:12:14;18.77;;;9.00;;
33188;SDS011;52601;53.070;10.600;2023-02-15T00:15:00;14.00;;;7.63;;
33188;SDS011;52601;53.070;10.600;2023-02-15T00:17:46;16.02;;;8.20;;
33188;SDS011;52601;53.070;10.600;2023-02-15T00:20:31;18.20;;;8.15;;
33188;SDS011;52601;53.070;10.600;2023-02-15T00:23:17;38.97;;;9.88;;
33188;SDS011;52601;53.070;10.600;2023-02-15T00:26:03;22.42;;;9.13;;
33188;SDS011;52601;53.070;10.600;2023-02-15T00:28:50;17.90;;;7.35;;
33188;SDS011;52601;53.070;10.600;2023-02-15T00:31:36;11.60;;;7.20;;
33188;SDS011;52601;53.070;10.600;2023-02-15T00:34:22;14.98;;;7.72;;
33188;SDS011;52601;53.070;10.600;2023-02-15T00:37:09;13.15;;;7.10;;
33188;SDS011;52601;53.070;10.600;2023-02-15T00:39:55;14.43;;;8.15;;
33188;SDS011;52601;53.070;10.600;2023-02-15T00:42:40;13.45;;;7.70;;
33188;SDS011;52601;53.070;10.600;2023-02-15T00:45:26;17.73;;;8.18;;
33188;SDS011;52601;53.070;10.600;2023-02-15T00:48:11;21.45;;;9.15;;
33188;SDS011;52601;53.070;10.600;2023-02-15T00:50:57;45.88;;;10.48;;
33188;SDS011;52601;53.070;10.600;2023-02-15T00:53:44;86.18;;;13.82;;
33188;SDS011;52601;53.070;10.600;2023-02-15T00:56:29;43.45;;;10.63;;
33188;SDS011;52601;53.070;10.600;2023-02-15T00:59:15;19.63;;;9.07;;
33188;SDS011;52601;53.070;10.600;2023-02-15T01:02:00;19.63;;;10.85;;
33188;SDS011;52601;53.070;10.600;2023-02-15T01:04:46;21.00;;;11.17;;
33188;SDS011;52601;53.070;10.600;2023-02-15T01:07:32;19.17;;;10.52;;
33188;SDS011;52601;53.070;10.600;2023-02-15T01:10:18;17.20;;;9.52;;
33188;SDS011;52601;53.070;10.600;2023-02-15T01:13:03;15.87;;;9.87;;
33188;SDS011;52601;53.070;10.600;2023-02-15T01:15:53;20.10;;;10.47;;
33188;SDS011;52601;53.070;10.600;2023-02-15T01:18:39;23.67;;;10.23;;
33188;SDS011;52601;53.070;10.600;2023-02-15T01:21:25;15.95;;;8.88;;
33188;SDS011;52601;53.070;10.600;2023-02-15T01:24:12;16.30;;;8.50;;
33188;SDS011;52601;53.070;10.600;2023-02-15T01:26:58;14.40;;;9.63;;
33188;SDS011;52601;53.070;10.600;2023-02-15T01:29:43;15.93;;;8.93;;
33188;SDS011;52601;53.070;10.600;2023-02-15T01:32:29;20.30;;;8.38;;
33188;SDS011;52601;53.070;10.600;2023-02-15T01:35:14;38.25;;;10.02;;
33188;SDS011;52601;53.070;10.600;2023-02-15T01:38:00;13.60;;;8.00;;
33188;SDS011;52601;53.070;10.600;2023-02-15T01:40:45;12.10;;;6.95;;
33188;SDS011;52601;53.070;10.600;2023-02-15T01:43:45;12.88;;;7.35;;
33188;SDS011;52601;53.070;10.600;2023-02-15T01:46:33;12.65;;;6.95;;
33188;SDS011;52601;53.070;10.600;2023-02-15T01:49:25;15.57;;;8.00;;
33188;SDS011;52601;53.070;10.600;2023-02-15T01:52:13;13.95;;;7.65;;
33188;SDS011;52601;53.070;10.600;2023-02-15T01:55:01;26.50;;;9.18;;
33188;SDS011;52601;53.070;10.600;2023-02-15T01:57:47;47.08;;;10.85;;
33188;SDS011;52601;53.070;10.600;2023-02-15T02:00:33;30.37;;;9.87;;
33188;SDS011;52601;53.070;10.600;2023-02-15T02:03:25;32.58;;;10.43;;
33188;SDS011;52601;53.070;10.600;2023-02-15T02:06:21;15.73;;;8.83;;
33188;SDS011;52601;53.070;10.600;2023-02-15T02:09:09;19.90;;;8.57;;
33188;SDS011;52601;53.070;10.600;2023-02-15T02:11:55;56.53;;;12.60;;
33188;SDS011;52601;53.070;10.600;2023-02-15T02:14:41;38.55;;;11.25;;
33188;SDS011;52601;53.070;10.600;2023-02-15T02:24:08;29.45;;;8.18;;
33188;SDS011;52601;53.070;10.600;2023-02-15T02:27:15;32.38;;;9.13;;
33188;SDS011;52601;53.070;10.600;2023-02-15T02:33:21;40.40;;;9.35;;
33188;SDS011;52601;53.070;10.600;2023-02-15T02:36:20;56.95;;;11.20;;
33188;SDS011;52601;53.070;10.600;2023-02-15T02:39:25;30.13;;;8.02;;
33188;SDS011;52601;53.070;10.600;2023-02-15T02:42:44;36.55;;;8.48;;
33188;SDS011;52601;53.070;10.600;2023-02-15T02:45:40;34.30;;;8.70;;
33188;SDS011;52601;53.070;10.600;2023-02-15T02:48:32;27.83;;;8.32;;
33188;SDS011;52601;53.070;10.600;2023-02-15T02:51:18;26.35;;;8.13;;
33188;SDS011;52601;53.070;10.600;2023-02-15T02:54:06;21.40;;;7.57;;
33188;SDS011;52601;53.070;10.600;2023-02-15T02:56:52;56.92;;;9.48;;
33188;SDS011;52601;53.070;10.600;2023-02-15T02:59:41;25.02;;;11.13;;
33188;SDS011;52601;53.070;10.600;2023-02-15T03:02:33;21.60;;;10.88;;
33188;SDS011;52601;53.070;10.600;2023-02-15T03:05:23;18.13;;;9.80;;
33188;SDS011;52601;53.070;10.600;2023-02-15T03:08:13;32.20;;;10.73;;
33188;SDS011;52601;53.070;10.600;2023-02-15T03:11:06;54.13;;;13.18;;
33188;SDS011;52601;53.070;10.600;2023-02-15T03:13:52;15.40;;;8.18;;
33188;SDS011;52601;53.070;10.600;2023-02-15T03:16:38;11.40;;;6.57;;
33188;SDS011;52601;53.070;10.600;2023-02-15T03:19:27;12.25;;;7.43;;
33188;SDS011;52601;53.070;10.600;2023-02-15T03:25:15;12.10;;;6.70;;
33188;SDS011;52601;53.070;10.600;2023-02-15T03:28:07;14.10;;;7.32;;
33188;SDS011;52601;53.070;10.600;2023-02-15T03:30:56;12.60;;;7.75;;
33188;SDS011;52601;53.070;10.600;2023-02-15T03:33:57;15.23;;;7.93;;
33188;SDS011;52601;53.070;10.600;2023-02-15T03:36:51;33.00;;;9.73;;
33188;SDS011;52601;53.070;10.600;2023-02-15T03:39:45;43.97;;;9.40;;
33188;SDS011;52601;53.070;10.600;2023-02-15T03:45:56;61.92;;;11.18;;
33188;SDS011;52601;53.070;10.600;2023-02-15T03:48:51;53.33;;;13.33;;
33188;SDS011;52601;53.070;10.600;2023-02-15T03:51:40;38.50;;;10.55;;
33188;SDS011;52601;53.070;10.600;2023-02-15T03:54:30;30.40;;;9.95;;
33188;SDS011;52601;53.070;10.600;2023-02-15T03:57:28;23.33;;;9.32;;
33188;SDS011;52601;53.070;10.600;2023-02-15T04:00:45;26.83;;;9.15;;
33188;SDS011;52601;53.070;10.600;2023-02-15T04:04:10;33.13;;;8.65;;
33188;SDS011;52601;53.070;10.600;2023-02-15T04:07:02;16.40;;;8.05;;
33188;SDS011;52601;53.070;10.600;2023-02-15T04:09:50;22.40;;;7.60;;
33188;SDS011;52601;53.070;10.600;2023-02-15T04:12:54;12.25;;;7.38;;
33188;SDS011;52601;53.070;10.600;2023-02-15T04:15:40;12.10;;;6.40;;
33188;SDS011;52601;53.070;10.600;2023-02-15T04:18:45;11.13;;;5.60;;
33188;SDS011;52601;53.070;10.600;2023-02-15T04:21:49;15.57;;;6.47;;
33188;SDS011;52601;53.070;10.600;2023-02-15T04:24:53;15.57;;;6.33;;
33188;SDS011;52601;53.070;10.600;2023-02-15T04:27:54;21.37;;;7.00;;
33188;SDS011;52601;53.070;10.600;2023-02-15T04:30:40;12.70;;;6.22;;
33188;SDS011;52601;53.070;10.600;2023-02-15T04:33:25;19.37;;;6.13;;
33188;SDS011;52601;53.070;10.600;2023-02-15T04:36:10;12.48;;;6.22;;
33188;SDS011;52601;53.070;10.600;2023-02-15T04:38:56;18.52;;;5.97;;
33188;SDS011;52601;53.070;10.600;2023-02-15T04:41:41;27.55;;;7.07;;
33188;SDS011;52601;53.070;10.600;2023-02-15T04:44:26;35.10;;;7.95;;
33188;SDS011;52601;53.070;10.600;2023-02-15T04:47:12;24.17;;;7.05;;
33188;SDS011;52601;53.070;10.600;2023-02-15T04:49:57;17.52;;;6.72;;
33188;SDS011;52601;53.070;10.600;2023-02-15T04:52:43;40.20;;;9.43;;
33188;SDS011;52601;53.070;10.600;2023-02-15T04:55:28;25.05;;;7.70;;
33188;SDS011;52601;53.070;10.600;2023-02-15T04:58:14;42.25;;;8.68;;
33188;SDS011;52601;53.070;10.600;2023-02-15T05:00:59;39.08;;;8.18;;
33188;SDS011;52601;53.070;10.600;2023-02-15T05:03:45;28.80;;;8.65;;
33188;SDS011;52601;53.070;10.600;2023-02-15T05:06:31;53.45;;;9.10;;
33188;SDS011;52601;53.070;10.600;2023-02-15T05:09:16;38.88;;;9.75;;
33188;SDS011;52601;53.070;10.600;2023-02-15T05:12:02;36.08;;;9.77;;
33188;SDS011;52601;53.070;10.600;2023-02-15T05:14:47;30.58;;;9.75;;
33188;SDS011;52601;53.070;10.600;2023-02-15T05:17:33;64.17;;;11.83;;
33188;SDS011;52601;53.070;10.600;2023-02-15T05:20:18;36.97;;;10.82;;
33188;SDS011;52601;53.070;10.600;2023-02-15T05:23:04;41.92;;;10.45;;
33188;SDS011;52601;53.070;10.600;2023-02-15T05:25:49;28.33;;;10.80;;
33188;SDS011;52601;53.070;10.600;2023-02-15T05:28:54;27.58;;;9.18;;
33188;SDS011;52601;53.070;10.600;2023-02-15T05:31:40;41.47;;;9.63;;
33188;SDS011;52601;53.070;10.600;2023-02-15T05:34:26;47.58;;;10.25;;
33188;SDS011;52601;53.070;10.600;2023-02-15T05:37:11;25.70;;;7.53;;
33188;SDS011;52601;53.070;10.600;2023-02-15T05:39:57;28.55;;;8.60;;
33188;SDS011;52601;53.070;10.600;2023-02-15T05:42:42;29.27;;;8.55;;
33188;SDS011;52601;53.070;10.600;2023-02-15T05:45:28;29.10;;;8.53;;
33188;SDS011;52601;53.070;10.600;2023-02-15T05:48:14;50.05;;;10.07;;
33188;SDS011;52601;53.070;10.600;2023-02-15T05:51:04;39.47;;;9.60;;
33188;SDS011;52601;53.070;10.600;2023-02-15T05:53:51;28.48;;;9.73;;
33188;SDS011;52601;53.070;10.600;2023-02-15T05:56:37;42.67;;;10.37;;
33188;SDS011;52601;53.070;10.600;2023-02-15T05:59:22;21.30;;;8.13;;
33188;SDS011;52601;53.070;10.600;2023-02-15T06:02:08;43.75;;;9.55;;
33188;SDS011;52601;53.070;10.600;2023-02-15T06:04:53;80.70;;;37.93;;
33188;SDS011;52601;53.070;10.600;2023-02-15T06:07:38;37.90;;;9.63;;
33188;SDS011;52601;53.070;10.600;2023-02-15T06:10:24;26.27;;;9.50;;
33188;SDS011;52601;53.070;10.600;2023-02-15T06:13:10;51.55;;;12.23;;
33188;SDS011;52601;53.070;10.600;2023-02-15T06:15:56;48.42;;;17.15;;
33188;SDS011;52601;53.070;10.600;2023-02-15T06:18:41;44.47;;;10.00;;
33188;SDS011;52601;53.070;10.600;2023-02-15T06:21:27;46.97;;;9.52;;
33188;SDS011;52601;53.070;10.600;2023-02-15T06:24:12;42.95;;;8.70;;
33188;SDS011;52601;53.070;10.600;2023-02-15T06:26:58;80.20;;;10.03;;
33188;SDS011;52601;53.070;10.600;2023-02-15T06:29:43;23.00;;;7.60;;
33188;SDS011;52601;53.070;10.600;2023-02-15T06:32:29;30.27;;;8.95;;
33188;SDS011;52601;53.070;10.600;2023-02-15T06:35:14;55.83;;;9.77;;
33188;SDS011;52601;53.070;10.600;2023-02-15T06:38:00;40.40;;;10.50;;
33188;SDS011;52601;53.070;10.600;2023-02-15T06:40:46;30.55;;;9.05;;
33188;SDS011;52601;53.070;10.600;2023-02-15T06:43:32;25.70;;;9.02;;
33188;SDS011;52601;53.070;10.600;2023-02-15T06:46:19;49.42;;;11.52;;
33188;SDS011;52601;53.070;10.600;2023-02-15T06:49:05;34.50;;;8.25;;
33188;SDS011;52601;53.070;10.600;2023-02-15T06:51:50;37.47;;;8.25;;
33188;SDS011;52601;53.070;10.600;2023-02-15T06:54:35;31.00;;;9.00;;
33188;SDS011;52601;53.070;10.600;2023-02-15T06:57:21;28.48;;;8.60;;
33188;SDS011;52601;53.070;10.600;2023-02-15T07:00:06;17.48;;;7.95;;
33188;SDS011;52601;53.070;10.600;2023-02-15T07:02:53;33.78;;;9.20;;
33188;SDS011;52601;53.070;10.600;2023-02-15T07:05:43;33.70;;;8.32;;
33188;SDS011;52601;53.070;10.600;2023-02-15T07:08:28;43.75;;;9.70;;
33188;SDS011;52601;53.070;10.600;2023-02-15T07:11:14;22.60;;;7.28;;
33188;SDS011;52601;53.070;10.600;2023-02-15T07:14:18;19.38;;;7.97;;
33188;SDS011;52601;53.070;10.600;2023-02-15T07:17:04;32.27;;;8.43;;
33188;SDS011;52601;53.070;10.600;2023-02-15T07:19:59;39.70;;;8.48;;
33188;SDS011;52601;53.070;10.600;2023-02-15T07:22:44;41.20;;;9.85;;
33188;SDS011;52601;53.070;10.600;2023-02-15T07:25:30;25.33;;;7.15;;
33188;SDS011;52601;53.070;10.600;2023-02-15T07:28:16;38.00;;;8.32;;
33188;SDS011;52601;53.070;10.600;2023-02-15T07:31:02;31.20;;;8.73;;
33188;SDS011;52601;53.070;10.600;2023-02-15T07:33:48;25.65;;;7.70;;
33188;SDS011;52601;53.070;10.600;2023-02-15T07:36:34;23.25;;;7.40;;
33188;SDS011;52601;53.070;10.600;2023-02-15T07:39:19;33.25;;;7.25;;
33188;SDS011;52601;53.070;10.600;2023-02-15T07:42:05;40.70;;;8.03;;
33188;SDS011;52601;53.070;10.600;2023-02-15T07:44:50;21.90;;;6.57;;
33188;SDS011;52601;53.070;10.600;2023-02-15T07:47:37;20.63;;;8.15;;
33188;SDS011;52601;53.070;10.600;2023-02-15T07:50:23;19.77;;;7.28;;
33188;SDS011;52601;53.070;10.600;2023-02-15T07:53:09;30.27;;;6.78;;
33188;SDS011;52601;53.070;10.600;2023-02-15T07:55:55;18.30;;;6.75;;
33188;SDS011;52601;53.070;10.600;2023-02-15T07:58:44;17.40;;;6.05;;
33188;SDS011;52601;53.070;10.600;2023-02-15T08:01:38;28.20;;;7.72;;
33188;SDS011;52601;53.070;10.600;2023-02-15T08:04:24;18.10;;;5.97;;
33188;SDS011;52601;53.070;10.600;2023-02-15T08:07:09;29.47;;;8.23;;
33188;SDS011;52601;53.070;10.600;2023-02-15T08:09:55;21.25;;;7.15;;
33188;SDS011;52601;53.070;10.600;2023-02-15T08:12:40;23.48;;;7.50;;
33188;SDS011;52601;53.070;10.600;2023-02-15T08:15:26;14.63;;;6.87;;
33188;SDS011;52601;53.070;10.600;2023-02-15T08:18:11;16.17;;;6.93;;
33188;SDS011;52601;53.070;10.600;2023-02-15T08:20:57;14.35;;;6.40;;
33188;SDS011;52601;53.070;10.600;2023-02-15T08:23:43;14.85;;;6.50;;
33188;SDS011;52601;53.070;10.600;2023-02-15T08:26:29;12.93;;;5.85;;
33188;SDS011;52601;53.070;10.600;2023-02-15T08:29:16;18.40;;;6.03;;
33188;SDS011;52601;53.070;10.600;2023-02-15T08:32:04;15.40;;;6.13;;
33188;SDS011;52601;53.070;10.600;2023-02-15T08:34:54;21.27;;;6.43;;
33188;SDS011;52601;53.070;10.600;2023-02-15T08:37:40;17.85;;;5.43;;
33188;SDS011;52601;53.070;10.600;2023-02-15T08:40:25;15.20;;;6.43;;
33188;SDS011;52601;53.070;10.600;2023-02-15T08:43:11;20.92;;;6.85;;
33188;SDS011;52601;53.070;10.600;2023-02-15T08:45:56;31.87;;;7.00;;
33188;SDS011;52601;53.070;10.600;2023-02-15T08:48:42;21.27;;;7.25;;
33188;SDS011;52601;53.070;10.600;2023-02-15T08:51:30;22.48;;;7.03;;
33188;SDS011;52601;53.070;10.600;2023-02-15T08:54:18;20.60;;;6.63;;
33188;SDS011;52601;53.070;10.600;2023-02-15T08:57:05;20.95;;;7.07;;
33188;SDS011;52601;53.070;10.600;2023-02-15T08:59:52;13.60;;;5.97;;
33188;SDS011;52601;53.070;10.600;2023-02-15T09:02:39;18.42;;;6.50;;
33188;SDS011;52601;53.070;10.600;2023-02-15T09:05:25;17.15;;;6.78;;
33188;SDS011;52601;53.070;10.600;2023-02-15T09:08:10;19.23;;;6.53;;
33188;SDS011;52601;53.070;10.600;2023-02-15T09:13:55;21.02;;;6.85;;
33188;SDS011;52601;53.070;10.600;2023-02-15T09:16:45;34.53;;;7.90;;
33188;SDS011;52601;53.070;10.600;2023-02-15T09:19:34;17.77;;;7.20;;
33188;SDS011;52601;53.070;10.600;2023-02-15T09:22:19;15.32;;;5.93;;
33188;SDS011;52601;53.070;10.600;2023-02-15T09:25:05;16.30;;;6.93;;
33188;SDS011;52601;53.070;10.600;2023-02-15T09:27:51;15.90;;;6.40;;
33188;SDS011;52601;53.070;10.600;2023-02-15T09:30:36;24.33;;;7.50;;
33188;SDS011;52601;53.070;10.600;2023-02-15T09:33:22;33.13;;;8.00;;
33188;SDS011;52601;53.070;10.600;2023-02-15T09:36:20;12.80;;;6.18;;
33188;SDS011;52601;53.070;10.600;2023-02-15T09:39:22;16.83;;;6.35;;
33188;SDS011;52601;53.070;10.600;2023-02-15T09:42:13;19.47;;;6.97;;
33188;SDS011;52601;53.070;10.600;2023-02-15T09:45:03;17.30;;;7.00;;
33188;SDS011;52601;53.070;10.600;2023-02-15T09:54:44;14.53;;;6.60;;
33188;SDS011;52601;53.070;10.600;2023-02-15T09:57:52;24.80;;;6.30;;
33188;SDS011;52601;53.070;10.600;2023-02-15T10:00:41;13.70;;;6.38;;
33188;SDS011;52601;53.070;10.600;2023-02-15T10:03:39;17.48;;;5.88;;
33188;SDS011;52601;53.070;10.600;2023-02-15T10:06:32;15.23;;;6.40;;
33188;SDS011;52601;53.070;10.600;2023-02-15T10:12:40;18.20;;;7.10;;
33188;SDS011;52601;53.070;10.600;2023-02-15T10:15:36;16.88;;;6.53;;
33188;SDS011;52601;53.070;10.600;2023-02-15T10:21:42;15.18;;;6.05;;
33188;SDS011;52601;53.070;10.600;2023-02-15T10:28:06;16.17;;;6.83;;
33188;SDS011;52601;53.070;10.600;2023-02-15T10:31:09;17.83;;;7.50;;
33188;SDS011;52601;53.070;10.600;2023-02-15T10:37:28;12.55;;;6.35;;
33188;SDS011;52601;53.070;10.600;2023-02-15T10:40:40;19.40;;;7.05;;
33188;SDS011;52601;53.070;10.600;2023-02-15T10:43:49;14.57;;;7.05;;
33188;SDS011;52601;53.070;10.600;2023-02-15T10:50:03;12.95;;;5.70;;
33188;SDS011;52601;53.070;10.600;2023-02-15T10:59:22;13.30;;;7.22;;
33188;SDS011;52601;53.070;10.600;2023-02-15T11:02:23;19.48;;;7.28;;
33188;SDS011;52601;53.070;10.600;2023-02-15T11:05:42;14.40;;;6.78;;
33188;SDS011;52601;53.070;10.600;2023-02-15T11:08:48;11.95;;;7.10;;
33188;SDS011;52601;53.070;10.600;2023-02-15T11:11:39;10.88;;;5.90;;
33188;SDS011;52601;53.070;10.600;2023-02-15T11:17:28;23.77;;;8.13;;
33188;SDS011;52601;53.070;10.600;2023-02-15T11:20:25;15.52;;;7.68;;
33188;SDS011;52601;53.070;10.600;2023-02-15T11:23:16;12.80;;;7.00;;
33188;SDS011;52601;53.070;10.600;2023-02-15T11:26:04;12.02;;;6.70;;
33188;SDS011;52601;53.070;10.600;2023-02-15T11:28:57;13.50;;;7.55;;
33188;SDS011;52601;53.070;10.600;2023-02-15T11:31:51;13.27;;;7.13;;
33188;SDS011;52601;53.070;10.600;2023-02-15T11:34:47;13.15;;;7.63;;
33188;SDS011;52601;53.070;10.600;2023-02-15T11:40:25;12.27;;;6.75;;
33188;SDS011;52601;53.070;10.600;2023-02-15T11:43:21;14.70;;;7.63;;
33188;SDS011;52601;53.070;10.600;2023-02-15T11:46:27;11.95;;;7.35;;
33188;SDS011;52601;53.070;10.600;2023-02-15T11:49:24;11.38;;;6.40;;
33188;SDS011;52601;53.070;10.600;2023-02-15T11:52:20;13.18;;;7.57;;
33188;SDS011;52601;53.070;10.600;2023-02-15T11:55:09;13.52;;;6.93;;
33188;SDS011;52601;53.070;10.600;2023-02-15T12:07:19;13.40;;;7.80;;
33188;SDS011;52601;53.070;10.600;2023-02-15T12:13:16;14.80;;;7.13;;
33188;SDS011;52601;53.070;10.600;2023-02-15T12:16:06;14.73;;;6.90;;
33188;SDS011;52601;53.070;10.600;2023-02-15T12:18:58;10.35;;;6.32;;
33188;SDS011;52601;53.070;10.600;2023-02-15T12:21:48;12.40;;;7.43;;
33188;SDS011;52601;53.070;10.600;2023-02-15T12:24:44;11.15;;;7.28;;
33188;SDS011;52601;53.070;10.600;2023-02-15T12:27:32;12.60;;;7.00;;
33188;SDS011;52601;53.070;10.600;2023-02-15T12:30:27;12.43;;;6.45;;
33188;SDS011;52601;53.070;10.600;2023-02-15T12:33:19;9.80;;;6.05;;
33188;SDS011;52601;53.070;10.600;2023-02-15T12:41:59;10.23;;;5.65;;
33188;SDS011;52601;53.070;10.600;2023-02-15T12:44:55;8.77;;;5.77;;
33188;SDS011;52601;53.070;10.600;2023-02-15T12:47:45;8.55;;;5.45;;
33188;SDS011;52601;53.070;10.600;2023-02-15T12:50:31;8.15;;;5.80;;
33188;SDS011;52601;53.070;10.600;2023-02-15T12:53:20;10.15;;;6.25;;
33188;SDS011;52601;53.070;10.600;2023-02-15T12:56:18;8.15;;;5.55;;
33188;SDS011;52601;53.070;10.600;2023-02-15T12:59:13;8.15;;;4.80;;
33188;SDS011;52601;53.070;10.600;2023-02-15T13:02:09;8.20;;;5.45;;
33188;SDS011;52601;53.070;10.600;2023-02-15T13:05:15;10.23;;;5.40;;
33188;SDS011;52601;53.070;10.600;2023-02-15T13:08:20;7.70;;;5.05;;
33188;SDS011;52601;53.070;10.600;2023-02-15T13:11:12;8.68;;;5.40;;
33188;SDS011;52601;53.070;10.600;2023-02-15T13:17:20;9.02;;;5.78;;
33188;SDS011;52601;53.070;10.600;2023-02-15T13:20:21;7.68;;;4.95;;
33188;SDS011;52601;53.070;10.600;2023-02-15T13:23:28;8.15;;;5.30;;
33188;SDS011;52601;53.070;10.600;2023-02-15T13:26:16;7.88;;;5.18;;
33188;SDS011;52601;53.070;10.600;2023-02-15T13:29:06;8.23;;;5.30;;
33188;SDS011;52601;53.070;10.600;2023-02-15T13:32:00;8.20;;;4.77;;
33188;SDS011;52601;53.070;10.600;2023-02-15T13:34:59;9.20;;;4.82;;
33188;SDS011;52601;53.070;10.600;2023-02-15T13:37:53;7.28;;;5.03;;
33188;SDS011;52601;53.070;10.600;2023-02-15T13:43:50;8.65;;;5.47;;
33188;SDS011;52601;53.070;10.600;2023-02-15T13:46:51;7.88;;;5.28;;
33188;SDS011;52601;53.070;10.600;2023-02-15T13:50:11;8.75;;;5.30;;
33188;SDS011;52601;53.070;10.600;2023-02-15T14:05:41;8.57;;;5.72;;
33188;SDS011;52601;53.070;10.600;2023-02-15T14:25:06;8.43;;;5.68;;
33188;SDS011;52601;53.070;10.600;2023-02-15T14:28:07;9.02;;;6.40;;
33188;SDS011;52601;53.070;10.600;2023-02-15T14:30:57;12.57;;;6.33;;
33188;SDS011;52601;53.070;10.600;2023-02-15T14:33:47;8.38;;;5.60;;
33188;SDS011;52601;53.070;10.600;2023-02-15T14:36:39;8.93;;;5.53;;
33188;SDS011;52601;53.070;10.600;2023-02-15T14:39:28;10.10;;;5.57;;
33188;SDS011;52601;53.070;10.600;2023-02-15T14:48:45;9.33;;;6.30;;
33188;SDS011;52601;53.070;10.600;2023-02-15T14:59:57;8.57;;;5.67;;
33188;SDS011;52601;53.070;10.600;2023-02-15T15:02:48;10.90;;;6.28;;
33188;SDS011;52601;53.070;10.600;2023-02-15T15:05:37;10.77;;;5.65;;
33188;SDS011;52601;53.070;10.600;2023-02-15T15:08:34;12.73;;;6.00;;
33188;SDS011;52601;53.070;10.600;2023-02-15T15:29:38;11.45;;;6.50;;
33188;SDS011;52601;53.070;10.600;2023-02-15T15:32:26;11.48;;;5.82;;
33188;SDS011;52601;53.070;10.600;2023-02-15T15:35:30;9.90;;;6.18;;
33188;SDS011;52601;53.070;10.600;2023-02-15T15:38:57;10.73;;;6.70;;
33188;SDS011;52601;53.070;10.600;2023-02-15T15:45:23;11.02;;;6.28;;
33188;SDS011;52601;53.070;10.600;2023-02-15T15:51:20;13.98;;;6.15;;
33188;SDS011;52601;53.070;10.600;2023-02-15T15:54:16;10.35;;;6.47;;
33188;SDS011;52601;53.070;10.600;2023-02-15T15:57:04;10.45;;;6.18;;
33188;SDS011;52601;53.070;10.600;2023-02-15T15:59:51;11.97;;;6.07;;
33188;SDS011;52601;53.070;10.600;2023-02-15T16:02:49;11.53;;;6.23;;
33188;SDS011;52601;53.070;10.600;2023-02-15T16:05:38;11.45;;;6.55;;
33188;SDS011;52601;53.070;10.600;2023-02-15T16:08:28;11.07;;;5.75;;
33188;SDS011;52601;53.070;10.600;2023-02-15T16:11:22;12.13;;;6.72;;
33188;SDS011;52601;53.070;10.600;2023-02-15T16:14:11;11.20;;;6.63;;
33188;SDS011;52601;53.070;10.600;2023-02-15T16:17:00;10.75;;;6.38;;
33188;SDS011;52601;53.070;10.600;2023-02-15T16:19:49;10.88;;;6.93;;
33188;SDS011;52601;53.070;10.600;2023-02-15T16:22:37;14.25;;;7.55;;
33188;SDS011;52601;53.070;10.600;2023-02-15T16:25:30;13.68;;;7.32;;
33188;SDS011;52601;53.070;10.600;2023-02-15T16:28:23;9.32;;;6.10;;
33188;SDS011;52601;53.070;10.600;2023-02-15T16:31:13;11.98;;;6.72;;
33188;SDS011;52601;53.070;10.600;2023-02-15T16:34:01;9.33;;;6.20;;
33188;SDS011;52601;53.070;10.600;2023-02-15T16:37:11;11.65;;;7.18;;
33188;SDS011;52601;53.070;10.600;2023-02-15T16:39:58;11.88;;;6.57;;
33188;SDS011;52601;53.070;10.600;2023-02-15T16:42:43;11.52;;;6.60;;
33188;SDS011;52601;53.070;10.600;2023-02-15T16:45:29;10.90;;;6.63;;
33188;SDS011;52601;53.070;10.600;2023-02-15T16:48:18;12.55;;;6.75;;
33188;SDS011;52601;53.070;10.600;2023-02-15T16:51:07;11.27;;;7.07;;
33188;SDS011;52601;53.070;10.600;2023-02-15T16:53:54;11.35;;;6.88;;
33188;SDS011;52601;53.070;10.600;2023-02-15T16:56:42;10.35;;;6.85;;
33188;SDS011;52601;53.070;10.600;2023-02-15T16:59:40;13.00;;;7.33;;
33188;SDS011;52601;53.070;10.600;2023-02-15T17:02:31;12.30;;;7.40;;
33188;SDS011;52601;53.070;10.600;2023-02-15T17:08:35;15.35;;;8.07;;
33188;SDS011;52601;53.070;10.600;2023-02-15T17:11:34;14.15;;;7.72;;
33188;SDS011;52601;53.070;10.600;2023-02-15T17:14:28;12.40;;;7.70;;
33188;SDS011;52601;53.070;10.600;2023-02-15T17:17:15;11.70;;;6.90;;
33188;SDS011;52601;53.070;10.600;2023-02-15T17:20:01;12.32;;;7.88;;
33188;SDS011;52601;53.070;10.600;2023-02-15T17:22:47;12.45;;;6.95;;
33188;SDS011;52601;53.070;10.600;2023-02-15T17:25:37;10.35;;;7.25;;
33188;SDS011;52601;53.070;10.600;2023-02-15T17:28:25;12.00;;;7.10;;
33188;SDS011;52601;53.070;10.600;2023-02-15T17:31:17;14.05;;;7.53;;
33188;SDS011;52601;53.070;10.600;2023-02-15T17:34:04;12.85;;;7.25;;
33188;SDS011;52601;53.070;10.600;2023-02-15T17:36:56;12.43;;;7.27;;
33188;SDS011;52601;53.070;10.600;2023-02-15T17:39:44;12.65;;;7.95;;
33188;SDS011;52601;53.070;10.600;2023-02-15T17:42:29;16.48;;;8.73;;
33188;SDS011;52601;53.070;10.600;2023-02-15T17:45:15;14.33;;;8.30;;
33188;SDS011;52601;53.070;10.600;2023-02-15T17:48:02;12.55;;;7.32;;
33188;SDS011;52601;53.070;10.600;2023-02-15T17:50:49;14.93;;;7.63;;
33188;SDS011;52601;53.070;10.600;2023-02-15T17:53:35;13.75;;;7.70;;
33188;SDS011;52601;53.070;10.600;2023-02-15T17:56:21;14.77;;;7.90;;
33188;SDS011;52601;53.070;10.600;2023-02-15T17:59:06;15.05;;;9.07;;
33188;SDS011;52601;53.070;10.600;2023-02-15T18:01:51;14.57;;;8.70;;
33188;SDS011;52601;53.070;10.600;2023-02-15T18:04:55;12.68;;;7.93;;
33188;SDS011;52601;53.070;10.600;2023-02-15T18:07:59;14.02;;;8.18;;
33188;SDS011;52601;53.070;10.600;2023-02-15T18:11:04;13.40;;;8.10;;
33188;SDS011;52601;53.070;10.600;2023-02-15T18:14:09;12.82;;;7.18;;
33188;SDS011;52601;53.070;10.600;2023-02-15T18:16:54;17.60;;;8.02;;
33188;SDS011;52601;53.070;10.600;2023-02-15T18:19:41;14.17;;;8.67;;
33188;SDS011;52601;53.070;10.600;2023-02-15T18:22:28;13.32;;;8.18;;
33188;SDS011;52601;53.070;10.600;2023-02-15T18:25:14;13.77;;;7.75;;
33188;SDS011;52601;53.070;10.600;2023-02-15T18:28:02;13.35;;;7.78;;
33188;SDS011;52601;53.070;10.600;2023-02-15T18:30:47;14.05;;;7.82;;
33188;SDS011;52601;53.070;10.600;2023-02-15T18:33:34;11.80;;;7.63;;
33188;SDS011;52601;53.070;10.600;2023-02-15T18:39:20;12.10;;;7.75;;
33188;SDS011;52601;53.070;10.600;2023-02-15T18:42:27;15.77;;;9.55;;
33188;SDS011;52601;53.070;10.600;2023-02-15T18:45:22;12.93;;;7.70;;
33188;SDS011;52601;53.070;10.600;2023-02-15T18:48:12;14.52;;;8.93;;
33188;SDS011;52601;53.070;10.600;2023-02-15T18:50:59;14.88;;;7.63;;
33188;SDS011;52601;53.070;10.600;2023-02-15T18:53:46;13.20;;;7.88;;
33188;SDS011;52601;53.070;10.600;2023-02-15T18:56:34;14.43;;;8.13;;
33188;SDS011;52601;53.070;10.600;2023-02-15T18:59:20;15.90;;;8.13;;
33188;SDS011;52601;53.070;10.600;2023-02-15T19:02:15;15.88;;;7.88;;
33188;SDS011;52601;53.070;10.600;2023-02-15T19:05:02;22.05;;;8.48;;
33188;SDS011;52601;53.070;10.600;2023-02-15T19:07:48;14.68;;;7.68;;
33188;SDS011;52601;53.070;10.600;2023-02-15T19:10:35;14.15;;;8.40;;